createdAt,value
2022-09-16T00:03:36.218Z,97989.50
2022-09-16T00:08:40.463Z,97978.16
2022-09-16T00:13:42.526Z,97976.88
2022-09-16T00:18:44.527Z,97989.03
2022-09-16T00:23:46.666Z,97980.97
2022-09-16T00:28:49.818Z,97976.06
2022-09-16T00:33:51.844Z,97987.31
2022-09-16T00:38:57.818Z,97972.84
2022-09-16T00:44:24.935Z,97978.28
2022-09-16T00:49:31.217Z,97985.63
2022-09-16T00:54:36.245Z,97984.00
2022-09-16T00:59:46.226Z,97974.09
2022-09-16T01:04:56.571Z,97974.44
2022-09-16T01:09:59.077Z,97968.47
2022-09-16T01:15:02.730Z,97962.41
2022-09-16T01:20:14.875Z,97964.66
2022-09-16T01:25:41.306Z,97951.25
2022-09-16T01:31:14.351Z,97950.66
2022-09-16T01:36:53.589Z,97945.47
2022-09-16T01:42:26.243Z,97947.94
2022-09-16T01:47:28.339Z,97946.44
2022-09-16T01:52:37.114Z,97949.00
2022-09-16T01:57:58.041Z,97953.47
2022-09-16T02:03:10.862Z,97956.41
2022-09-16T02:08:18.257Z,97956.06
2022-09-16T02:13:35.117Z,97946.22
2022-09-16T02:18:41.890Z,97946.25
2022-09-16T02:23:49.502Z,97958.88
2022-09-16T02:28:54.962Z,97952.31
2022-09-16T02:34:02.896Z,97953.03
2022-09-16T02:39:09.874Z,97949.72
2022-09-16T02:44:12.333Z,97942.19
2022-09-16T02:49:32.792Z,97932.59
2022-09-16T02:55:01.243Z,97941.16
2022-09-16T03:00:04.782Z,97930.75
2022-09-16T03:05:07.284Z,97935.97
2022-09-16T03:10:12.213Z,97935.06
2022-09-16T03:15:46.969Z,97927.22
2022-09-16T03:20:59.036Z,97922.94
2022-09-16T03:26:24.051Z,97922.75
2022-09-16T03:31:44.793Z,97935.72
2022-09-16T03:36:52.795Z,97916.03
2022-09-16T03:41:55.682Z,97923.69
2022-09-16T03:46:57.722Z,97930.84
2022-09-16T03:52:00.454Z,97935.69
2022-09-16T03:57:02.596Z,97934.59
2022-09-16T04:02:04.736Z,97931.56
2022-09-16T04:07:06.654Z,97931.06
2022-09-16T04:12:08.998Z,97942.53
2022-09-16T04:17:11.005Z,97945.88
2022-09-16T04:22:12.944Z,97944.03
2022-09-16T04:27:14.953Z,97945.50
2022-09-16T04:32:16.867Z,97938.19
2022-09-16T04:37:19.077Z,97930.50
2022-09-16T04:42:21.110Z,97931.31
2022-09-16T04:47:23.046Z,97931.16
2022-09-16T04:52:25.092Z,97926.94
2022-09-16T04:57:31.564Z,97922.22
2022-09-16T05:02:33.665Z,97921.88
2022-09-16T05:07:35.770Z,97909.63
2022-09-16T05:12:38.275Z,97895.25
2022-09-16T05:17:50.931Z,97898.50
2022-09-16T05:22:53.253Z,97907.75
2022-09-16T05:27:55.244Z,97902.09
2022-09-16T05:32:57.346Z,97893.53
2022-09-16T05:37:59.808Z,97898.75
2022-09-16T05:43:01.972Z,97896.66
2022-09-16T05:48:04.091Z,97887.75
2022-09-16T05:53:06.133Z,97888.53
2022-09-16T05:58:08.051Z,97891.72
2022-09-16T06:03:11.048Z,97882.59
2022-09-16T06:08:13.070Z,97877.84
2022-09-16T06:13:15.016Z,97870.47
2022-09-16T06:18:19.071Z,97874.22
2022-09-16T06:23:22.216Z,97872.94
2022-09-16T06:28:24.279Z,97881.28
2022-09-16T06:33:26.165Z,97882.66
2022-09-16T06:38:28.199Z,97860.63
2022-09-16T06:43:30.599Z,97856.69
2022-09-16T06:48:33.998Z,97851.09
2022-09-16T06:53:36.824Z,97842.63
2022-09-16T06:58:42.519Z,97855.66
2022-09-16T07:03:47.740Z,97841.94
2022-09-16T07:08:50.378Z,97849.06
2022-09-16T07:13:52.497Z,97855.25
2022-09-16T07:19:00.709Z,97838.47
2022-09-16T07:24:04.007Z,97843.78
2022-09-16T07:29:07.921Z,97832.59
2022-09-16T07:34:12.114Z,97836.53
2022-09-16T07:39:16.559Z,97836.19
2022-09-16T07:44:20.579Z,97821.41
2022-09-16T07:49:22.636Z,97820.75
2022-09-16T07:54:24.633Z,97813.41
2022-09-16T07:59:26.720Z,97813.94
2022-09-16T08:04:28.814Z,97805.81
2022-09-16T08:09:41.100Z,97791.13
2022-09-16T08:14:44.619Z,97787.44
2022-09-16T08:19:46.688Z,97789.66
2022-09-16T08:24:48.808Z,97783.22
2022-09-16T08:29:50.840Z,97778.31
2022-09-16T08:34:53.482Z,97777.69
2022-09-16T08:39:55.624Z,97761.84
2022-09-16T08:45:16.143Z,97765.84
2022-09-16T08:50:31.865Z,97770.50
2022-09-16T08:55:39.869Z,97758.75
2022-09-16T09:00:47.454Z,97760.66
2022-09-16T09:05:58.825Z,97748.59
2022-09-16T09:11:06.570Z,97760.53
2022-09-16T09:16:14.648Z,97757.94
2022-09-16T09:21:28.899Z,97777.91
2022-09-16T09:26:41.029Z,97755.56
2022-09-16T09:32:11.097Z,97744.16
2022-09-16T09:37:38.499Z,97758.69
2022-09-16T09:42:59.543Z,97765.84
2022-09-16T09:48:19.177Z,97740.09
2022-09-16T09:53:28.797Z,97731.69
2022-09-16T09:58:41.331Z,97740.13
2022-09-16T10:03:45.376Z,97734.97
2022-09-16T10:08:52.251Z,97730.75
2022-09-16T10:14:00.106Z,97698.25
2022-09-16T10:19:09.043Z,97710.53
2022-09-16T10:24:41.062Z,97708.94
2022-09-16T10:29:43.289Z,97683.06
2022-09-16T10:34:46.617Z,97718.22
2022-09-16T10:39:57.284Z,97710.00
2022-09-16T10:45:14.386Z,97676.78
2022-09-16T10:50:18.999Z,97690.94
2022-09-16T10:55:35.381Z,97668.31
2022-09-16T11:00:49.027Z,97673.34
2022-09-16T11:06:35.723Z,97683.84
2022-09-16T11:11:59.421Z,97664.28
2022-09-16T11:17:49.727Z,97658.53
2022-09-16T11:23:29.796Z,97653.19
2022-09-16T11:29:07.231Z,97654.47
2022-09-16T11:34:25.233Z,97642.75
2022-09-16T11:39:41.429Z,97652.78
2022-09-16T11:44:44.400Z,97643.28
2022-09-16T11:50:05.251Z,97625.72
2022-09-16T11:55:50.760Z,97634.19
2022-09-16T12:00:56.329Z,97627.75
2022-09-16T12:06:11.355Z,97610.56
2022-09-16T12:11:16.276Z,97621.84
2022-09-16T12:16:28.161Z,97614.34
2022-09-16T12:21:36.144Z,97607.59
2022-09-16T12:26:43.449Z,97622.81
2022-09-16T12:32:15.993Z,97605.69
2022-09-16T12:37:42.868Z,97616.31
2022-09-16T12:43:19.742Z,97597.22
2022-09-16T12:48:28.771Z,97603.75
2022-09-16T12:53:49.719Z,97598.75
2022-09-16T12:58:51.769Z,97591.34
2022-09-16T13:04:13.786Z,97611.81
2022-09-16T13:09:24.566Z,97615.28
2022-09-16T13:14:33.585Z,97609.13
2022-09-16T13:19:53.939Z,97601.97
2022-09-16T13:25:09.915Z,97591.09
2022-09-16T13:30:15.477Z,97602.63
2022-09-16T13:35:21.009Z,97597.41
2022-09-16T13:40:26.262Z,97599.50
2022-09-16T13:45:43.840Z,97596.59
2022-09-16T13:50:56.379Z,97590.03
2022-09-16T13:56:31.732Z,97601.41
2022-09-16T14:02:06.248Z,97607.81
2022-09-16T14:07:08.420Z,97591.00
2022-09-16T14:12:17.147Z,97593.47
2022-09-16T14:17:41.235Z,97591.94
2022-09-16T14:22:44.720Z,97593.03
2022-09-16T14:27:47.068Z,97617.72
2022-09-16T14:32:49.922Z,97618.22
2022-09-16T14:37:57.052Z,97614.72
2022-09-16T14:43:04.699Z,97604.44
2022-09-16T14:48:10.048Z,97623.72
2022-09-16T14:53:36.327Z,97608.38
2022-09-16T14:58:40.006Z,97592.56
2022-09-16T15:03:42.196Z,97588.28
2022-09-16T15:08:57.350Z,97581.09
2022-09-16T15:14:00.080Z,97576.75
2022-09-16T15:19:04.919Z,97564.03
2022-09-16T15:24:18.192Z,97574.06
2022-09-16T15:29:23.602Z,97564.56
2022-09-16T15:34:26.728Z,97563.75
2022-09-16T15:39:39.417Z,97560.19
2022-09-16T15:44:56.642Z,97557.63
2022-09-16T15:49:59.310Z,97550.50
2022-09-16T15:55:05.682Z,97546.78
2022-09-16T16:00:16.119Z,97549.78
2022-09-16T16:05:24.808Z,97548.72
2022-09-16T16:10:32.694Z,97538.56
2022-09-16T16:15:37.038Z,97531.78
2022-09-16T16:20:40.646Z,97540.00
2022-09-16T16:25:43.826Z,97511.16
2022-09-16T16:30:46.552Z,97517.91
2022-09-16T16:35:48.968Z,97516.59
2022-09-16T16:40:52.062Z,97525.72
2022-09-16T16:45:56.039Z,97519.59
2022-09-16T16:51:00.838Z,97508.50
2022-09-16T16:56:15.131Z,97508.38
2022-09-16T17:01:20.335Z,97499.03
2022-09-16T17:06:22.931Z,97490.19
2022-09-16T17:11:26.606Z,97508.31
2022-09-16T17:16:30.935Z,97514.22
2022-09-16T17:21:34.698Z,97506.53
2022-09-16T17:26:37.032Z,97505.97
2022-09-16T17:31:40.155Z,97516.16
2022-09-16T17:36:45.240Z,97498.19
2022-09-16T17:41:49.127Z,97501.34
2022-09-16T17:46:51.575Z,97476.41
2022-09-16T17:51:54.051Z,97501.38
2022-09-16T17:56:56.406Z,97513.97
2022-09-16T18:01:59.457Z,97503.88
2022-09-16T18:07:02.001Z,97506.03
2022-09-16T18:12:04.463Z,97496.94
2022-09-16T18:17:06.677Z,97497.88
2022-09-16T18:22:09.229Z,97489.31
2022-09-16T18:27:12.135Z,97479.38
2022-09-16T18:32:14.790Z,97475.84
2022-09-16T18:37:17.076Z,97468.31
2022-09-16T18:42:19.273Z,97484.97
2022-09-16T18:47:21.413Z,97498.78
2022-09-16T18:52:23.586Z,97500.16
2022-09-16T18:57:26.253Z,97495.56
2022-09-16T19:02:28.741Z,97500.28
2022-09-16T19:07:30.962Z,97487.38
2022-09-16T19:12:38.463Z,97494.72
2022-09-16T19:17:41.444Z,97492.06
2022-09-16T19:22:44.141Z,97488.34
2022-09-16T19:27:46.439Z,97487.50
2022-09-16T19:32:50.850Z,97486.84
2022-09-16T19:37:53.066Z,97506.53
2022-09-16T19:42:55.471Z,97503.56
2022-09-16T19:47:57.586Z,97503.50
2022-09-16T19:53:00.251Z,97500.50
2022-09-16T19:58:02.831Z,97509.56
2022-09-16T20:03:05.181Z,97496.63
2022-09-16T20:08:07.501Z,97502.13
2022-09-16T20:13:09.680Z,97515.75
2022-09-16T20:18:11.640Z,97522.16
2022-09-16T20:23:13.692Z,97524.97
2022-09-16T20:28:15.648Z,97543.25
2022-09-16T20:33:17.678Z,97557.50
2022-09-16T20:38:19.703Z,97556.66
2022-09-16T20:43:21.745Z,97553.66
2022-09-16T20:48:23.829Z,97557.63
2022-09-16T20:53:25.896Z,97551.88
2022-09-16T20:58:28.214Z,97563.63
2022-09-16T21:03:30.295Z,97566.97
2022-09-16T21:08:34.232Z,97572.56
2022-09-16T21:13:36.519Z,97570.22
2022-09-16T21:18:39.177Z,97574.81
2022-09-16T21:23:41.868Z,97569.56
2022-09-16T21:28:45.109Z,97554.63
2022-09-16T21:33:49.785Z,97572.41
2022-09-16T21:38:52.142Z,97588.69
2022-09-16T21:43:55.964Z,97609.75
2022-09-16T21:49:01.261Z,97616.06
2022-09-16T21:54:08.844Z,97612.13
2022-09-16T21:59:11.451Z,97613.31
2022-09-16T22:04:19.087Z,97620.03
2022-09-16T22:09:21.683Z,97616.06
2022-09-16T22:14:24.699Z,97623.28
2022-09-16T22:19:26.649Z,97622.31
2022-09-16T22:24:29.740Z,97623.78
2022-09-16T22:29:31.802Z,97625.75
2022-09-16T22:34:35.426Z,97631.56
2022-09-16T22:39:37.508Z,97625.50
2022-09-16T22:44:39.414Z,97647.59
2022-09-16T22:49:41.507Z,97649.06
2022-09-16T22:54:43.460Z,97665.22
2022-09-16T22:59:45.541Z,97660.53
2022-09-16T23:04:47.539Z,97663.84
2022-09-16T23:09:49.642Z,97658.00
2022-09-16T23:14:51.715Z,97663.91
2022-09-16T23:19:54.566Z,97670.00
2022-09-16T23:24:56.710Z,97666.31
2022-09-16T23:29:58.779Z,97677.16
2022-09-16T23:35:00.746Z,97664.69
2022-09-16T23:40:04.179Z,97674.50
2022-09-16T23:45:06.864Z,97652.28
2022-09-16T23:50:11.442Z,97668.25
2022-09-16T23:55:13.566Z,97660.78
